Time;durP1;ratioP1;P1;durP2;ratioP2;P2;SDS_P1;SDS_P2;PMS_P1;PMS_P2;Temp;Humidity;BMP_temperature;BMP_pressure;BME280_temperature;BME280_humidity;BME280_pressure;Samples;Min_cycle;Max_cycle;Signal;HPM_P1;HPM_P2
2022/09/03 00:00:57;;;;;;;7.60;1.23;;;15.30;93.70;;;;;;5055900;28;20457;-71
2022/09/03 00:03:52;;;;;;;2.97;1.17;;;15.40;93.70;;;;;;5055825;28;20041;-70
2022/09/03 00:06:35;;;;;;;3.28;1.30;;;15.30;93.70;;;;;;5053144;28;20060;-71
2022/09/03 00:09:08;;;;;;;5.85;1.17;;;15.20;93.70;;;;;;5055552;28;20488;-71
2022/09/03 00:11:51;;;;;;;3.10;1.15;;;15.10;93.90;;;;;;5055283;28;20051;-71
2022/09/03 00:14:25;;;;;;;;;;;15.10;93.90;;;;;;5056083;28;20048;-72
2022/09/03 00:17:01;;;;;;;3.92;1.23;;;15.00;94.30;;;;;;5055881;28;19968;-70
2022/09/03 00:19:33;;;;;;;5.22;1.48;;;14.90;94.10;;;;;;5055469;28;20041;-70
2022/09/03 00:22:09;;;;;;;3.67;1.30;;;15.00;94.10;;;;;;5055821;28;20033;-73
2022/09/03 00:24:39;;;;;;;2.92;1.17;;;14.90;94.20;;;;;;5055638;28;20049;-69
2022/09/03 00:27:22;;;;;;;5.10;1.20;;;14.90;94.50;;;;;;5054948;28;20044;-72
2022/09/03 00:29:54;;;;;;;2.78;1.10;;;14.90;94.40;;;;;;5037828;28;20052;-71
2022/09/03 00:32:41;;;;;;;4.45;0.88;;;14.80;94.30;;;;;;5055566;28;20127;-73
2022/09/03 00:35:15;;;;;;;2.55;1.00;;;14.80;94.80;;;;;;5055404;28;20041;-70
2022/09/03 00:37:42;;;;;;;3.20;1.23;;;14.70;94.70;;;;;;5055085;28;20064;-71
2022/09/03 00:40:19;;;;;;;2.25;1.05;;;14.70;94.60;;;;;;5054910;28;20099;-70
2022/09/03 00:43:10;;;;;;;2.30;0.75;;;14.60;94.80;;;;;;5054788;28;20452;-71
2022/09/03 00:46:06;;;;;;;4.15;1.27;;;14.60;94.80;;;;;;5055358;28;20041;-71
2022/09/03 00:49:13;;;;;;;2.97;1.02;;;14.60;94.90;;;;;;5055083;28;20037;-72
2022/09/03 00:52:11;;;;;;;2.78;1.05;;;14.50;94.80;;;;;;5029039;28;20067;-71
2022/09/03 00:55:01;;;;;;;2.30;1.15;;;14.50;94.90;;;;;;5055240;28;20100;-71
2022/09/03 00:58:02;;;;;;;4.63;1.00;;;14.40;95.20;;;;;;5034941;28;20115;-70
2022/09/03 01:00:28;;;;;;;4.78;0.93;;;14.40;95.10;;;;;;5035172;28;20132;-71
2022/09/03 01:03:06;;;;;;;2.63;1.10;;;14.40;95.10;;;;;;5034761;28;20124;-71
2022/09/03 01:05:58;;;;;;;11.43;1.80;;;14.40;95.10;;;;;;5034093;28;20103;-71
2022/09/03 01:08:40;;;;;;;3.97;1.17;;;14.40;95.10;;;;;;5035233;28;20061;-71
2022/09/03 01:11:31;;;;;;;3.20;1.52;;;14.30;95.20;;;;;;5014487;28;20141;-71
2022/09/03 01:14:23;;;;;;;6.00;1.20;;;14.40;95.30;;;;;;5054682;28;20076;-72
2022/09/03 01:17:06;;;;;;;2.63;1.05;;;14.20;95.30;;;;;;5003744;28;20068;-70
2022/09/03 01:20:03;;;;;;;2.45;1.13;;;14.20;95.50;;;;;;5055101;28;20049;-72
2022/09/03 01:22:44;;;;;;;2.72;1.25;;;14.20;95.70;;;;;;5054652;28;20416;-72
2022/09/03 01:25:16;;;;;;;3.55;1.00;;;14.20;95.50;;;;;;5037036;28;20051;-71
2022/09/03 01:27:57;;;;;;;4.43;1.15;;;14.10;95.50;;;;;;5054614;28;20103;-70
2022/09/03 01:30:23;;;;;;;4.38;1.08;;;14.00;95.60;;;;;;5037167;28;20040;-73
2022/09/03 01:33:07;;;;;;;2.03;1.15;;;14.00;95.70;;;;;;5054987;28;20037;-71
2022/09/03 01:35:59;;;;;;;2.28;1.05;;;14.00;95.60;;;;;;5054932;28;20396;-70
2022/09/03 01:38:36;;;;;;;7.15;1.92;;;13.90;95.80;;;;;;5054980;28;20373;-70
2022/09/03 01:44:42;;;;;;;4.55;1.13;;;13.90;95.90;;;;;;5054194;28;20445;-74
2022/09/03 01:47:14;;;;;;;3.38;1.20;;;13.80;95.90;;;;;;5053410;28;20045;-70
2022/09/03 01:49:51;;;;;;;3.85;1.13;;;13.80;96.20;;;;;;5054310;28;20064;-71
2022/09/03 01:52:30;;;;;;;3.40;1.30;;;13.90;96.30;;;;;;5054709;28;20049;-70
2022/09/03 01:55:12;;;;;;;2.20;1.20;;;13.80;96.40;;;;;;5054416;28;20071;-70
2022/09/03 01:57:59;;;;;;;1.95;1.05;;;13.70;96.30;;;;;;5053744;28;20077;-69
2022/09/03 02:00:27;;;;;;;5.30;1.42;;;13.70;96.40;;;;;;5054414;28;20099;-71
2022/09/03 02:02:53;;;;;;;1.55;1.00;;;13.70;96.40;;;;;;5053944;28;20045;-72
2022/09/03 02:05:23;;;;;;;3.70;1.40;;;13.70;96.40;;;;;;5054107;28;20219;-69
2022/09/03 02:08:03;;;;;;;4.13;1.20;;;13.60;96.60;;;;;;5054367;28;20056;-70
2022/09/03 02:10:37;;;;;;;6.13;1.20;;;13.60;96.60;;;;;;5054149;28;20409;-70
2022/09/03 02:13:16;;;;;;;2.58;1.38;;;13.60;96.70;;;;;;5019574;28;20057;-71
2022/09/03 02:15:45;;;;;;;2.50;1.23;;;13.60;96.80;;;;;;5054635;28;20053;-72
2022/09/03 02:18:26;;;;;;;3.78;1.10;;;13.50;96.70;;;;;;5057246;28;20480;-72
2022/09/03 02:20:56;;;;;;;2.90;1.48;;;13.50;96.80;;;;;;5057635;28;20041;-70
2022/09/03 02:23:23;;;;;;;5.72;1.33;;;13.60;96.90;;;;;;5057825;28;20033;-73
2022/09/03 02:25:56;;;;;;;4.13;1.30;;;13.60;96.90;;;;;;5057764;28;20092;-70
2022/09/03 02:28:22;;;;;;;2.78;1.15;;;13.60;96.90;;;;;;5057686;28;20045;-72
2022/09/03 02:30:48;;;;;;;2.22;1.10;;;13.60;96.70;;;;;;5057833;28;20041;-70
2022/09/03 02:33:14;;;;;;;2.85;1.40;;;13.60;96.70;;;;;;5057184;28;20042;-71
2022/09/03 02:35:41;;;;;;;3.20;1.10;;;13.60;96.90;;;;;;5057470;28;20348;-71
2022/09/03 02:38:18;;;;;;;4.57;1.35;;;13.60;96.80;;;;;;5039582;28;20110;-71
2022/09/03 02:40:44;;;;;;;4.55;1.27;;;13.60;97.10;;;;;;5057468;28;20514;-71
2022/09/03 02:43:18;;;;;;;3.05;1.10;;;13.60;96.80;;;;;;5057377;28;20437;-71
2022/09/03 02:45:49;;;;;;;2.50;1.02;;;13.70;96.90;;;;;;5057853;28;20049;-71
2022/09/03 02:48:21;;;;;;;4.15;1.10;;;13.70;96.90;;;;;;5057786;28;20135;-71
2022/09/03 02:50:47;;;;;;;3.92;1.20;;;13.70;97.00;;;;;;5057412;28;20366;-71
2022/09/03 02:53:12;;;;;;;1.95;1.08;;;13.70;96.90;;;;;;5039452;28;20053;-71
2022/09/03 02:55:38;;;;;;;3.33;1.50;;;13.80;96.90;;;;;;5057669;28;20041;-73
2022/09/03 02:58:05;;;;;;;2.63;1.23;;;13.80;96.70;;;;;;5056407;28;20037;-69
2022/09/03 03:00:31;;;;;;;4.65;1.20;;;13.90;96.80;;;;;;5056984;28;20060;-71
2022/09/03 03:02:57;;;;;;;2.67;1.15;;;14.00;96.70;;;;;;5039923;28;20060;-71
2022/09/03 03:05:34;;;;;;;4.70;1.23;;;14.00;96.80;;;;;;5056990;28;20045;-71
2022/09/03 03:08:00;;;;;;;1.80;1.10;;;14.00;96.70;;;;;;5039686;28;20467;-72
2022/09/03 03:10:26;;;;;;;1.95;1.10;;;14.00;96.60;;;;;;5056780;28;20041;-70
2022/09/03 03:12:52;;;;;;;3.78;1.30;;;14.00;96.50;;;;;;5055731;28;20056;-71
2022/09/03 03:15:18;;;;;;;3.10;1.05;;;14.10;96.60;;;;;;5038458;28;20133;-70
2022/09/03 03:17:43;;;;;;;5.90;1.30;;;14.10;96.60;;;;;;5056839;28;20049;-72
2022/09/03 03:20:09;;;;;;;5.82;1.30;;;14.10;96.70;;;;;;5056777;28;20413;-70
2022/09/03 03:22:35;;;;;;;4.00;1.10;;;14.10;96.60;;;;;;5039251;28;20131;-70
2022/09/03 03:25:01;;;;;;;6.18;1.08;;;14.20;96.60;;;;;;5056615;28;20416;-71
2022/09/03 03:27:26;;;;;;;4.30;1.42;;;14.20;96.60;;;;;;5038671;28;20171;-72
2022/09/03 03:29:53;;;;;;;3.17;1.20;;;14.10;96.50;;;;;;5055386;28;20067;-71
2022/09/03 03:32:19;;;;;;;3.30;1.20;;;14.10;96.60;;;;;;5056835;28;20049;-72
2022/09/03 03:34:44;;;;;;;1.98;1.00;;;14.10;96.60;;;;;;5056670;28;20461;-70
2022/09/03 03:37:10;;;;;;;3.35;1.13;;;14.10;96.60;;;;;;5056090;28;20525;-71
2022/09/03 03:39:35;;;;;;;2.47;1.25;;;14.10;96.90;;;;;;5056327;28;20045;-71
2022/09/03 03:42:01;;;;;;;2.60;1.17;;;14.10;96.70;;;;;;5056240;28;20143;-71
2022/09/03 03:44:28;;;;;;;3.00;1.27;;;14.10;96.70;;;;;;5055850;28;20045;-71
2022/09/03 03:46:53;;;;;;;3.22;1.20;;;14.10;96.70;;;;;;5056243;28;20064;-71
2022/09/03 03:49:19;;;;;;;3.60;1.13;;;14.00;96.80;;;;;;5056221;28;20045;-72
2022/09/03 03:51:44;;;;;;;3.38;1.40;;;14.00;96.80;;;;;;5056079;28;20108;-72
2022/09/03 03:54:10;;;;;;;2.53;1.30;;;14.00;96.80;;;;;;5056493;28;20157;-73
2022/09/03 03:56:35;;;;;;;4.90;1.30;;;14.00;96.90;;;;;;5056084;28;20049;-71
2022/09/03 03:59:02;;;;;;;5.57;1.20;;;14.00;97.00;;;;;;5055600;28;20052;-71
2022/09/03 04:01:27;;;;;;;2.80;1.15;;;14.00;97.10;;;;;;5055720;28;20114;-72
2022/09/03 04:03:58;;;;;;;4.05;1.20;;;13.90;97.00;;;;;;5055974;28;20036;-73
2022/09/03 04:06:24;;;;;;;3.65;1.23;;;13.90;97.10;;;;;;5038401;28;20449;-71
2022/09/03 04:08:50;;;;;;;3.88;1.40;;;13.80;97.10;;;;;;5055792;28;20041;-73
2022/09/03 04:11:20;;;;;;;3.38;1.23;;;14.00;97.20;;;;;;5055956;28;20060;-70
2022/09/03 04:13:47;;;;;;;4.53;1.25;;;13.80;97.30;;;;;;5037550;28;20531;-71
2022/09/03 04:16:14;;;;;;;4.15;1.40;;;13.80;97.30;;;;;;5056344;28;20041;-70
2022/09/03 04:18:40;;;;;;;4.63;1.60;;;13.80;97.30;;;;;;5055662;28;20111;-71
2022/09/03 04:21:11;;;;;;;4.90;1.48;;;13.80;97.40;;;;;;5055599;28;20056;-71
2022/09/03 04:23:40;;;;;;;1.92;1.17;;;13.90;97.40;;;;;;5037915;28;20056;-72
2022/09/03 04:26:07;;;;;;;2.50;1.20;;;13.90;97.40;;;;;;5055341;28;20041;-71
2022/09/03 04:28:33;;;;;;;2.35;1.25;;;13.80;97.30;;;;;;5055250;28;20091;-72
2022/09/03 04:31:04;;;;;;;4.03;1.20;;;13.80;97.50;;;;;;5055566;28;20056;-71
2022/09/03 04:33:31;;;;;;;2.92;1.50;;;13.80;97.50;;;;;;5055649;28;20052;-71
2022/09/03 04:36:04;;;;;;;5.13;1.60;;;13.80;97.50;;;;;;5037376;28;20492;-71
2022/09/03 04:38:30;;;;;;;4.68;1.65;;;13.80;97.50;;;;;;5055285;28;20049;-71
2022/09/03 04:40:56;;;;;;;3.00;1.52;;;13.80;97.60;;;;;;5055267;28;20041;-71
2022/09/03 04:43:21;;;;;;;6.90;1.60;;;13.80;97.60;;;;;;5054822;28;20361;-72
2022/09/03 04:45:47;;;;;;;3.05;1.60;;;13.80;97.60;;;;;;5037605;28;20445;-70
2022/09/03 04:48:12;;;;;;;4.20;1.67;;;13.80;97.60;;;;;;5055166;28;20049;-71
2022/09/03 04:50:38;;;;;;;5.90;1.75;;;13.80;97.60;;;;;;5055077;28;20049;-71
2022/09/03 04:53:04;;;;;;;2.80;1.40;;;13.70;97.60;;;;;;5055389;28;20045;-71
2022/09/03 04:55:37;;;;;;;3.85;1.63;;;13.60;97.80;;;;;;5037803;28;20053;-71
2022/09/03 04:58:04;;;;;;;3.88;1.60;;;13.60;97.90;;;;;;5054710;28;20037;-70
2022/09/03 05:00:29;;;;;;;2.92;1.67;;;13.60;97.90;;;;;;5055051;28;20055;-70
2022/09/03 05:02:58;;;;;;;3.28;1.58;;;13.60;98.00;;;;;;5054983;28;20128;-73
2022/09/03 05:05:24;;;;;;;2.33;1.40;;;13.60;98.10;;;;;;5054239;28;20453;-72
2022/09/03 05:07:49;;;;;;;4.97;1.73;;;13.70;98.10;;;;;;5054872;28;20040;-71
2022/09/03 05:10:19;;;;;;;5.00;1.55;;;13.60;98.10;;;;;;5055126;28;20037;-69
2022/09/03 05:12:46;;;;;;;4.20;1.77;;;13.70;98.10;;;;;;5054204;28;20037;-70
2022/09/03 05:15:12;;;;;;;4.75;1.50;;;13.70;98.20;;;;;;5037218;28;20045;-71
2022/09/03 05:17:38;;;;;;;2.70;1.50;;;13.70;98.30;;;;;;5054966;28;20041;-71
2022/09/03 05:20:06;;;;;;;3.85;1.52;;;13.70;98.30;;;;;;5054580;28;20098;-70
2022/09/03 05:22:33;;;;;;;3.78;1.80;;;13.70;98.60;;;;;;5054658;28;20041;-69
2022/09/03 05:24:59;;;;;;;7.97;1.90;;;13.70;98.30;;;;;;5055028;28;20380;-71
2022/09/03 05:27:24;;;;;;;3.45;1.90;;;13.70;98.30;;;;;;5037699;28;20053;-70
2022/09/03 05:29:50;;;;;;;8.55;1.70;;;13.80;98.40;;;;;;5054271;28;20041;-69
2022/09/03 05:32:16;;;;;;;5.32;1.60;;;13.80;98.40;;;;;;5053917;28;20044;-71
2022/09/03 05:34:42;;;;;;;5.18;1.90;;;13.90;98.30;;;;;;5054510;28;20048;-70
2022/09/03 05:37:08;;;;;;;2.97;1.80;;;13.90;98.30;;;;;;5054764;28;20476;-69
2022/09/03 05:39:34;;;;;;;6.57;2.00;;;14.00;98.30;;;;;;5037708;28;20092;-70
2022/09/03 05:41:59;;;;;;;4.10;1.95;;;13.90;98.30;;;;;;5054392;28;20076;-71
2022/09/03 05:44:25;;;;;;;3.70;1.73;;;14.00;98.30;;;;;;5053837;28;20049;-69
2022/09/03 05:46:51;;;;;;;5.38;1.58;;;13.90;98.30;;;;;;5054235;28;20041;-68
2022/09/03 05:49:16;;;;;;;3.85;1.67;;;13.90;98.40;;;;;;5054892;28;20041;-70
2022/09/03 05:51:42;;;;;;;3.40;1.70;;;14.00;98.40;;;;;;5054062;28;20136;-69
2022/09/03 05:54:09;;;;;;;3.78;1.65;;;14.00;98.60;;;;;;5058658;28;20051;-71
2022/09/03 05:56:38;;;;;;;3.60;1.60;;;14.00;98.30;;;;;;5058315;28;20041;-70
2022/09/03 05:59:07;;;;;;;3.50;1.70;;;14.00;98.30;;;;;;5058422;28;20049;-70
2022/09/03 06:01:38;;;;;;;2.72;1.60;;;14.10;98.20;;;;;;5040737;28;20143;-69
2022/09/03 06:04:09;;;;;;;3.58;2.00;;;14.10;98.40;;;;;;5057837;28;20041;-70
2022/09/03 06:06:38;;;;;;;2.97;1.40;;;14.10;98.30;;;;;;5042606;28;20032;-70
2022/09/03 06:09:20;;;;;;;3.55;1.77;;;14.20;98.40;;;;;;5058109;28;20090;-69
2022/09/03 06:11:50;;;;;;;3.30;1.80;;;14.50;98.30;;;;;;5057905;28;20041;-69
2022/09/03 06:14:16;;;;;;;2.35;1.40;;;14.70;97.90;;;;;;5057825;28;20049;-68
2022/09/03 06:16:48;;;;;;;6.25;1.80;;;15.30;97.90;;;;;;5057828;28;20049;-69
2022/09/03 06:19:14;;;;;;;3.88;1.77;;;15.80;97.30;;;;;;5057755;28;20051;-70
2022/09/03 06:21:43;;;;;;;4.65;1.77;;;16.40;96.60;;;;;;5057632;28;20057;-69
2022/09/03 06:24:13;;;;;;;3.92;1.50;;;17.10;95.40;;;;;;5057915;28;20037;-69
2022/09/03 06:26:39;;;;;;;6.13;2.10;;;17.60;95.00;;;;;;5058716;28;20049;-70
2022/09/03 06:29:05;;;;;;;3.80;1.50;;;18.30;95.00;;;;;;5040289;28;20044;-69
2022/09/03 06:31:31;;;;;;;2.83;1.58;;;19.10;93.90;;;;;;5055932;28;20098;-69
2022/09/03 06:33:57;;;;;;;3.70;1.42;;;19.80;93.30;;;;;;5056774;28;20041;-72
2022/09/03 06:36:23;;;;;;;5.15;1.92;;;20.40;92.40;;;;;;5040612;28;20045;-70
2022/09/03 06:38:54;;;;;;;5.72;1.52;;;21.00;91.60;;;;;;5050055;28;20487;-71
2022/09/03 06:41:25;;;;;;;2.53;1.50;;;20.90;90.80;;;;;;5057517;28;20041;-70
2022/09/03 06:44:03;;;;;;;3.47;1.55;;;19.90;91.10;;;;;;5053263;28;20134;-70
2022/09/03 06:46:31;;;;;;;2.90;1.40;;;19.40;91.60;;;;;;5052899;28;20037;-71
2022/09/03 06:48:58;;;;;;;3.03;1.70;;;18.90;92.30;;;;;;5049210;28;20036;-73
2022/09/03 06:51:26;;;;;;;3.75;1.77;;;18.40;92.10;;;;;;5056818;28;20045;-73
2022/09/03 06:53:55;;;;;;;4.35;1.73;;;18.00;92.70;;;;;;5056722;28;20384;-72
2022/09/03 06:56:25;;;;;;;7.20;1.50;;;17.70;93.20;;;;;;5057134;28;20063;-71
2022/09/03 06:58:52;;;;;;;3.25;1.65;;;17.50;93.30;;;;;;5041590;28;20072;-72
2022/09/03 07:01:21;;;;;;;2.35;1.50;;;17.30;94.20;;;;;;5055325;28;20052;-71
2022/09/03 07:03:51;;;;;;;2.83;1.50;;;17.10;93.70;;;;;;5055347;28;20040;-69
2022/09/03 07:06:18;;;;;;;2.78;1.60;;;17.00;94.00;;;;;;5022962;28;20056;-71
2022/09/03 07:08:45;;;;;;;5.40;1.90;;;16.90;94.00;;;;;;5056300;28;20049;-69
2022/09/03 07:11:12;;;;;;;9.23;1.77;;;16.80;94.20;;;;;;5055660;28;20428;-69
2022/09/03 07:13:43;;;;;;;5.50;1.70;;;16.90;94.70;;;;;;5056350;28;20041;-70
2022/09/03 07:16:14;;;;;;;2.97;1.45;;;16.80;94.50;;;;;;5039840;28;20044;-70
2022/09/03 07:18:42;;;;;;;9.43;1.88;;;16.80;94.70;;;;;;5057052;28;20343;-68
2022/09/03 07:21:13;;;;;;;3.75;1.55;;;16.80;94.60;;;;;;5038959;28;20049;-69
2022/09/03 07:23:39;;;;;;;5.40;1.75;;;16.90;94.50;;;;;;5039016;28;20064;-69
2022/09/03 07:26:08;;;;;;;2.80;1.48;;;16.90;94.50;;;;;;5054308;28;20052;-70
2022/09/03 07:28:36;;;;;;;3.75;1.70;;;17.00;94.50;;;;;;5056061;28;20041;-70
2022/09/03 07:31:06;;;;;;;5.07;1.52;;;17.00;94.40;;;;;;5042002;28;20037;-69
2022/09/03 07:33:33;;;;;;;5.95;1.67;;;17.10;94.60;;;;;;5035874;28;20041;-68
2022/09/03 07:36:11;;;;;;;3.10;1.35;;;17.10;94.40;;;;;;5035808;28;20171;-70
2022/09/03 07:38:37;;;;;;;3.90;1.55;;;17.20;94.40;;;;;;5051744;28;20434;-71
2022/09/03 07:41:05;;;;;;;2.95;1.40;;;17.20;94.40;;;;;;5055835;28;20033;-72
2022/09/03 07:43:38;;;;;;;3.30;1.50;;;17.20;94.30;;;;;;5055534;28;20052;-73
2022/09/03 07:46:05;;;;;;;3.60;1.38;;;17.30;94.30;;;;;;5055779;28;20053;-71
2022/09/03 07:48:31;;;;;;;4.15;1.70;;;17.30;94.10;;;;;;5038299;28;20040;-71
2022/09/03 07:51:00;;;;;;;13.73;2.13;;;17.50;93.80;;;;;;5056130;28;20106;-71
2022/09/03 07:53:28;;;;;;;4.28;1.50;;;17.50;94.20;;;;;;5055589;28;20450;-73
2022/09/03 07:56:00;;;;;;;4.63;1.75;;;17.50;94.30;;;;;;5055985;28;20106;-72
2022/09/03 07:58:28;;;;;;;4.97;1.50;;;17.60;94.10;;;;;;5055784;28;20450;-72
2022/09/03 08:00:55;;;;;;;9.32;1.58;;;17.70;94.00;;;;;;5038448;28;20480;-70
2022/09/03 08:03:21;;;;;;;2.67;1.55;;;17.80;94.40;;;;;;5055896;28;20099;-71
2022/09/03 08:05:47;;;;;;;5.40;1.50;;;17.80;93.90;;;;;;5055846;28;20072;-71
2022/09/03 08:08:13;;;;;;;4.75;1.67;;;17.90;93.60;;;;;;5055186;28;20057;-71
2022/09/03 08:10:39;;;;;;;4.57;1.90;;;17.90;93.80;;;;;;5055789;28;20092;-71
2022/09/03 08:13:05;;;;;;;4.90;1.42;;;18.00;93.70;;;;;;5037882;28;20081;-71
2022/09/03 08:15:31;;;;;;;4.88;1.33;;;18.00;93.80;;;;;;5055433;28;20049;-70
2022/09/03 08:17:58;;;;;;;2.53;1.20;;;18.10;93.80;;;;;;5055399;28;20049;-71
2022/09/03 08:20:24;;;;;;;3.47;1.30;;;18.30;93.80;;;;;;5055606;28;20037;-71
2022/09/03 08:22:50;;;;;;;4.55;1.70;;;18.40;93.80;;;;;;5038188;28;20408;-72
2022/09/03 08:25:15;;;;;;;3.35;1.42;;;18.50;93.40;;;;;;5055357;28;20098;-71
2022/09/03 08:27:41;;;;;;;2.00;1.15;;;18.60;93.40;;;;;;5055637;28;20045;-73
2022/09/03 08:30:10;;;;;;;5.82;1.73;;;18.60;93.00;;;;;;5055328;28;20045;-71
2022/09/03 08:32:39;;;;;;;5.95;1.25;;;18.70;93.00;;;;;;5037789;28;20087;-71
2022/09/03 08:35:08;;;;;;;5.47;1.23;;;18.80;93.00;;;;;;5055057;28;20494;-71
2022/09/03 08:37:34;;;;;;;4.30;1.40;;;18.80;93.30;;;;;;5055036;28;20068;-72
2022/09/03 08:39:59;;;;;;;3.85;1.38;;;19.00;93.20;;;;;;5055345;28;20041;-72
2022/09/03 08:42:38;;;;;;;3.78;1.73;;;19.10;93.10;;;;;;5055473;28;20392;-72
2022/09/03 08:45:08;;;;;;;4.53;1.45;;;19.60;92.20;;;;;;5055548;28;20128;-70
2022/09/03 08:47:42;;;;;;;4.43;1.63;;;20.40;92.20;;;;;;5055063;28;20106;-71
2022/09/03 08:50:28;;;;;;;3.00;1.40;;;21.00;91.40;;;;;;5055367;28;20051;-71
2022/09/03 08:53:11;;;;;;;2.97;1.20;;;21.20;90.60;;;;;;5054630;28;20047;-72
2022/09/03 08:55:49;;;;;;;5.30;1.50;;;21.30;90.60;;;;;;5054959;28;20064;-73
2022/09/03 08:58:20;;;;;;;2.40;1.38;;;21.20;90.90;;;;;;5054979;28;20045;-71
2022/09/03 09:01:10;;;;;;;3.58;1.42;;;21.20;90.80;;;;;;5037539;28;20037;-71
2022/09/03 09:04:00;;;;;;;3.70;1.58;;;21.10;90.50;;;;;;5055354;28;20064;-71
2022/09/03 09:06:45;;;;;;;4.10;1.33;;;21.00;90.60;;;;;;5054854;28;20045;-73
2022/09/03 09:09:29;;;;;;;5.25;1.30;;;20.90;90.90;;;;;;5054875;28;20053;-72
2022/09/03 09:12:29;;;;;;;6.10;1.33;;;21.00;90.80;;;;;;5054521;28;20045;-71
2022/09/03 09:15:16;;;;;;;4.43;1.38;;;21.10;90.70;;;;;;5054954;28;20059;-71
2022/09/03 09:18:09;;;;;;;6.10;1.30;;;21.40;90.90;;;;;;5054724;28;20048;-71
2022/09/03 09:21:01;;;;;;;5.13;1.02;;;21.90;89.50;;;;;;5037105;28;20092;-71
2022/09/03 09:23:32;;;;;;;3.55;1.17;;;22.40;88.80;;;;;;5048996;28;20056;-72
2022/09/03 09:26:05;;;;;;;6.85;1.70;;;22.70;88.60;;;;;;5051267;28;20045;-72
2022/09/03 09:28:37;;;;;;;5.53;1.02;;;23.30;88.90;;;;;;5057338;28;20424;-70
2022/09/03 09:31:06;;;;;;;3.13;1.05;;;23.80;87.40;;;;;;5056785;28;20090;-70
2022/09/03 09:33:33;;;;;;;2.65;1.10;;;24.20;85.90;;;;;;5058538;28;20052;-71
2022/09/03 09:36:14;;;;;;;3.88;1.27;;;24.40;85.30;;;;;;5058604;28;20127;-72
2022/09/03 09:38:40;;;;;;;4.15;1.25;;;24.20;85.00;;;;;;5057402;28;20049;-70
2022/09/03 09:41:18;;;;;;;3.92;1.20;;;23.70;85.40;;;;;;5058322;28;20048;-71
2022/09/03 09:43:46;;;;;;;6.10;1.55;;;23.20;86.00;;;;;;5058651;28;20457;-69
2022/09/03 09:46:20;;;;;;;1.73;1.00;;;22.80;86.60;;;;;;5058513;28;20457;-70
2022/09/03 09:48:55;;;;;;;5.40;1.38;;;22.60;87.10;;;;;;5039557;28;20048;-72
2022/09/03 09:51:30;;;;;;;3.53;1.00;;;22.40;87.50;;;;;;5040322;28;20041;-70
2022/09/03 09:54:03;;;;;;;8.00;1.23;;;22.40;86.90;;;;;;5058268;28;20045;-70
2022/09/03 09:56:29;;;;;;;;;;;22.40;87.50;;;;;;5058586;28;20052;-68
2022/09/03 09:59:05;;;;;;;2.60;1.20;;;22.40;87.60;;;;;;5058318;28;19921;-68
2022/09/03 10:01:31;;;;;;;5.70;1.05;;;22.50;87.70;;;;;;5055656;28;20064;-71
2022/09/03 10:03:59;;;;;;;13.77;1.40;;;22.70;85.90;;;;;;5055538;28;20045;-69
2022/09/03 10:09:14;;;;;;;3.63;1.17;;;22.60;86.40;;;;;;5058061;28;20056;-70
2022/09/03 10:11:56;;;;;;;2.10;1.08;;;22.70;86.60;;;;;;5040350;28;20342;-70
2022/09/03 10:14:34;;;;;;;5.45;0.90;;;22.80;86.40;;;;;;5040253;28;20075;-69
2022/09/03 10:17:15;;;;;;;3.15;1.20;;;23.00;85.80;;;;;;5057874;28;20549;-70
2022/09/03 10:20:26;;;;;;;6.93;1.27;;;23.00;86.40;;;;;;5057925;28;20079;-70
2022/09/03 10:22:55;;;;;;;3.53;1.10;;;23.10;85.20;;;;;;5057438;28;20040;-70
2022/09/03 10:25:23;;;;;;;2.67;1.25;;;23.20;85.20;;;;;;5056861;28;20049;-70
2022/09/03 10:27:52;;;;;;;4.65;1.00;;;23.30;85.20;;;;;;5055053;28;20126;-70
2022/09/03 10:30:18;;;;;;;6.00;0.95;;;23.40;85.20;;;;;;5055939;28;20053;-69
2022/09/03 10:33:05;;;;;;;3.72;1.05;;;23.50;85.40;;;;;;5057518;28;20049;-68
2022/09/03 10:35:38;;;;;;;2.17;1.02;;;23.60;83.50;;;;;;5057560;28;20061;-69
2022/09/03 10:38:06;;;;;;;2.67;0.98;;;23.70;82.80;;;;;;5039761;28;20089;-68
2022/09/03 10:40:51;;;;;;;3.60;1.05;;;23.80;83.90;;;;;;5057670;28;20041;-71
2022/09/03 10:43:50;;;;;;;2.30;1.00;;;23.80;83.10;;;;;;5039568;28;20503;-69
2022/09/03 10:46:24;;;;;;;4.22;0.88;;;23.90;82.80;;;;;;5057139;28;20468;-69
2022/09/03 10:48:55;;;;;;;5.63;1.02;;;24.00;82.80;;;;;;5057572;28;20426;-68
2022/09/03 10:51:47;;;;;;;3.33;1.10;;;24.10;82.50;;;;;;5057162;28;20088;-68
2022/09/03 10:54:31;;;;;;;4.07;1.10;;;24.20;82.80;;;;;;5057321;28;20040;-71
2022/09/03 10:57:08;;;;;;;5.30;1.05;;;24.30;81.70;;;;;;5056810;28;20041;-70
2022/09/03 10:59:52;;;;;;;7.68;1.05;;;24.40;81.40;;;;;;5056749;28;20521;-70
2022/09/03 11:02:46;;;;;;;6.68;1.10;;;24.40;81.40;;;;;;5056821;28;20361;-71
2022/09/03 11:05:17;;;;;;;6.75;1.20;;;24.40;81.60;;;;;;5057045;28;20080;-69
2022/09/03 11:07:48;;;;;;;7.80;1.25;;;24.40;81.70;;;;;;5057057;28;20342;-70
2022/09/03 11:10:34;;;;;;;2.47;1.00;;;24.50;81.10;;;;;;5056253;28;20036;-70
2022/09/03 11:13:16;;;;;;;3.45;1.30;;;24.50;79.00;;;;;;5057054;28;20045;-70
2022/09/03 11:15:52;;;;;;;2.83;0.82;;;24.50;80.40;;;;;;5056598;28;20076;-71
2022/09/03 11:18:37;;;;;;;4.88;0.98;;;24.50;78.50;;;;;;5056827;28;20041;-69
2022/09/03 11:21:09;;;;;;;4.10;1.33;;;24.60;79.30;;;;;;5056504;28;20044;-69
2022/09/03 11:23:40;;;;;;;6.60;1.20;;;24.70;80.00;;;;;;5056996;28;20143;-70
2022/09/03 11:26:12;;;;;;;4.80;0.85;;;24.80;79.80;;;;;;5056938;28;20045;-69
2022/09/03 11:28:39;;;;;;;1.83;0.95;;;24.90;78.60;;;;;;5055988;28;20076;-69
2022/09/03 11:31:46;;;;;;;5.90;1.20;;;25.00;78.80;;;;;;5055959;28;20084;-69
2022/09/03 11:34:26;;;;;;;2.13;1.10;;;25.10;78.30;;;;;;5056453;28;20051;-68
2022/09/03 11:37:16;;;;;;;1.55;0.80;;;25.10;79.60;;;;;;5056360;28;20107;-68
2022/09/03 11:39:41;;;;;;;3.97;1.35;;;25.30;80.10;;;;;;5056275;28;20041;-69
2022/09/03 11:42:19;;;;;;;1.80;0.80;;;25.30;78.00;;;;;;5056448;28;20048;-70
2022/09/03 11:44:50;;;;;;;4.90;1.02;;;25.30;77.90;;;;;;5053678;28;20103;-70
2022/09/03 11:47:42;;;;;;;5.60;1.17;;;25.20;77.70;;;;;;5055740;28;20057;-69
2022/09/03 11:50:30;;;;;;;3.50;1.00;;;25.10;76.90;;;;;;5055213;28;20045;-69
2022/09/03 11:53:33;;;;;;;2.30;1.10;;;25.10;76.60;;;;;;5048840;28;20058;-67
2022/09/03 11:56:19;;;;;;;2.67;0.82;;;25.10;76.90;;;;;;5035976;28;20085;-68
2022/09/03 11:58:45;;;;;;;2.78;0.73;;;25.00;76.80;;;;;;5035612;28;20350;-69
2022/09/03 12:01:14;;;;;;;3.00;0.98;;;25.20;77.80;;;;;;5035937;28;20524;-69
2022/09/03 12:03:58;;;;;;;1.92;1.00;;;25.20;77.20;;;;;;5044626;28;20041;-69
2022/09/03 12:07:01;;;;;;;4.15;1.00;;;25.20;76.60;;;;;;5056070;28;20443;-68
2022/09/03 12:09:38;;;;;;;2.40;1.05;;;25.20;77.80;;;;;;5055996;28;20044;-69
2022/09/03 12:12:26;;;;;;;2.25;0.90;;;25.30;77.80;;;;;;5055681;28;20045;-67
2022/09/03 12:15:04;;;;;;;5.78;1.00;;;25.30;76.50;;;;;;5038835;28;20064;-67
2022/09/03 12:18:17;;;;;;;2.38;0.80;;;25.40;77.50;;;;;;5053881;28;20041;-68
2022/09/03 12:20:36;;;;;;;2.70;0.90;;;25.60;75.10;;;;;;5038463;28;20041;-70
2022/09/03 12:23:02;;;;;;;4.80;1.10;;;25.50;75.70;;;;;;5048080;28;20467;-68
2022/09/03 12:25:28;;;;;;;2.97;0.98;;;25.60;76.10;;;;;;5045643;28;20037;-69
2022/09/03 12:27:53;;;;;;;1.95;1.05;;;25.70;76.60;;;;;;5041086;28;20038;-68
2022/09/03 12:30:23;;;;;;;4.95;1.00;;;25.80;76.30;;;;;;5035251;28;20045;-68
2022/09/03 12:32:51;;;;;;;2.50;1.00;;;25.80;75.50;;;;;;5054628;28;20037;-68
2022/09/03 12:35:23;;;;;;;5.20;1.27;;;25.70;75.20;;;;;;5054917;28;20449;-69
2022/09/03 12:37:51;;;;;;;3.60;1.00;;;25.70;75.60;;;;;;5055496;28;20078;-68
2022/09/03 12:40:20;;;;;;;5.80;1.10;;;25.80;76.00;;;;;;5037525;28;20389;-70
2022/09/03 12:42:46;;;;;;;2.25;0.82;;;25.80;75.70;;;;;;5054802;28;20049;-69
2022/09/03 12:45:14;;;;;;;6.75;1.05;;;25.90;75.80;;;;;;5055165;28;20048;-67
2022/09/03 12:47:42;;;;;;;3.53;0.80;;;25.90;76.20;;;;;;5037819;28;20202;-68
2022/09/03 12:50:10;;;;;;;3.08;0.90;;;25.90;75.30;;;;;;5036948;28;20076;-67
2022/09/03 12:52:57;;;;;;;2.15;0.93;;;26.00;74.90;;;;;;5054422;28;20053;-70
2022/09/03 12:55:35;;;;;;;1.40;0.80;;;26.00;75.70;;;;;;5054849;28;20067;-68
2022/09/03 12:58:03;;;;;;;8.40;1.02;;;26.10;75.60;;;;;;5055321;28;20071;-69
2022/09/03 13:00:32;;;;;;;2.50;0.90;;;26.00;74.30;;;;;;5054790;28;20067;-67
2022/09/03 13:03:29;;;;;;;3.10;0.90;;;26.00;74.80;;;;;;5054735;28;20048;-67
2022/09/03 13:06:07;;;;;;;2.97;1.02;;;26.00;74.70;;;;;;5044287;28;20048;-68
2022/09/03 13:08:57;;;;;;;4.32;1.15;;;25.90;74.90;;;;;;5037408;28;20045;-66
2022/09/03 13:11:24;;;;;;;4.45;1.20;;;25.90;74.50;;;;;;5053895;28;20061;-66
2022/09/03 13:14:04;;;;;;;4.05;0.82;;;25.80;74.40;;;;;;5054583;28;20218;-67
2022/09/03 13:16:50;;;;;;;1.65;0.90;;;25.60;74.20;;;;;;5054602;28;20488;-66
2022/09/03 13:19:16;;;;;;;2.30;0.90;;;25.60;74.90;;;;;;5054595;28;20110;-68
2022/09/03 13:22:00;;;;;;;4.93;1.02;;;25.70;74.20;;;;;;5054542;28;20041;-67
2022/09/03 13:24:26;;;;;;;4.80;0.95;;;25.70;74.60;;;;;;5054957;28;20052;-68